createdAt,value
2018-10-11T00:01:38.257Z,15.73
2018-10-11T00:04:06.849Z,15.90
2018-10-11T00:06:35.394Z,15.83
2018-10-11T00:09:04.931Z,14.40
2018-10-11T00:11:33.519Z,15.70
2018-10-11T00:14:02.067Z,15.23
2018-10-11T00:16:30.606Z,15.43
2018-10-11T00:18:59.172Z,15.83
2018-10-11T00:21:27.874Z,15.07
2018-10-11T00:23:56.415Z,16.27
2018-10-11T00:26:24.992Z,16.50
2018-10-11T00:28:53.522Z,16.73
2018-10-11T00:31:22.033Z,17.60
2018-10-11T00:33:50.605Z,16.90
2018-10-11T00:36:19.119Z,17.60
2018-10-11T00:38:47.639Z,16.63
2018-10-11T00:41:16.170Z,16.93
2018-10-11T00:43:44.700Z,17.20
2018-10-11T00:46:13.231Z,17.00
2018-10-11T00:48:41.843Z,17.60
2018-10-11T00:51:10.394Z,18.77
2018-10-11T00:53:39.007Z,18.50
2018-10-11T00:56:07.638Z,19.53
2018-10-11T00:58:36.179Z,18.27
2018-10-11T01:01:04.746Z,18.30
2018-10-11T01:03:33.278Z,19.40
2018-10-11T01:06:01.841Z,16.93
2018-10-11T01:08:30.381Z,18.80
2018-10-11T01:10:58.883Z,18.77
2018-10-11T01:13:27.426Z,18.17
2018-10-11T01:15:55.926Z,18.90
2018-10-11T01:18:24.440Z,18.50
2018-10-11T01:20:53.055Z,17.87
2018-10-11T01:23:21.610Z,19.30
2018-10-11T01:25:50.142Z,18.10
2018-10-11T01:28:18.664Z,18.50
2018-10-11T01:30:52.500Z,17.60
2018-10-11T01:33:21.011Z,18.47
2018-10-11T01:35:49.554Z,18.73
2018-10-11T01:38:18.064Z,17.90
2018-10-11T01:40:46.627Z,18.33
2018-10-11T01:43:15.183Z,17.57
2018-10-11T01:45:43.764Z,17.30
2018-10-11T01:48:12.297Z,17.20
2018-10-11T01:50:40.899Z,16.90
2018-10-11T01:56:00.036Z,16.70
2018-10-11T01:58:28.539Z,16.50
2018-10-11T02:00:57.073Z,17.30
2018-10-11T02:03:25.607Z,16.73
2018-10-11T02:05:54.153Z,15.90
2018-10-11T02:08:22.701Z,16.53
2018-10-11T02:10:51.227Z,16.17
2018-10-11T02:13:19.815Z,16.00
2018-10-11T02:15:54.748Z,16.93
2018-10-11T02:18:23.273Z,16.47
2018-10-11T02:20:51.800Z,16.70
2018-10-11T02:23:20.338Z,17.23
2018-10-11T02:25:48.859Z,16.37
2018-10-11T02:28:17.390Z,17.60
2018-10-11T02:30:45.916Z,18.43
2018-10-11T02:33:14.437Z,18.90
2018-10-11T02:35:42.951Z,19.40
2018-10-11T02:38:11.503Z,18.33
2018-10-11T02:40:40.030Z,18.37
2018-10-11T02:43:08.551Z,19.80
2018-10-11T02:45:37.067Z,20.37
2018-10-11T02:48:06.438Z,18.43
2018-10-11T02:50:34.957Z,17.60
2018-10-11T02:53:03.516Z,18.07
2018-10-11T02:55:32.150Z,18.33
2018-10-11T02:58:11.623Z,18.77
2018-10-11T03:00:40.237Z,17.77
2018-10-11T03:03:11.679Z,18.60
2018-10-11T03:05:43.025Z,18.70
2018-10-11T03:08:14.916Z,17.83
2018-10-11T03:10:47.055Z,19.00
2018-10-11T03:13:15.620Z,20.80
2018-10-11T03:15:44.510Z,18.10
2018-10-11T03:18:13.840Z,18.20
2018-10-11T03:20:43.794Z,18.17
2018-10-11T03:23:12.914Z,19.50
2018-10-11T03:25:42.452Z,18.20
2018-10-11T03:28:11.957Z,16.57
2018-10-11T03:30:40.710Z,17.37
2018-10-11T03:33:09.204Z,16.97
2018-10-11T03:35:37.832Z,19.07
2018-10-11T03:38:06.408Z,19.77
2018-10-11T03:40:35.000Z,18.70
2018-10-11T03:43:03.593Z,19.40
2018-10-11T03:45:32.122Z,20.17
2018-10-11T03:48:00.675Z,21.97
2018-10-11T03:50:29.199Z,22.97
2018-10-11T03:52:58.848Z,22.40
2018-10-11T03:55:27.895Z,22.30
2018-10-11T03:57:56.515Z,21.53
2018-10-11T04:00:25.698Z,22.77
2018-10-11T04:02:54.253Z,22.43
2018-10-11T04:05:22.767Z,22.17
2018-10-11T04:07:51.301Z,21.93
2018-10-11T04:10:19.827Z,21.93
2018-10-11T04:12:48.345Z,21.10
2018-10-11T04:15:16.859Z,22.57
2018-10-11T04:17:45.408Z,24.10
2018-10-11T04:20:13.922Z,24.20
2018-10-11T04:22:42.467Z,24.83
2018-10-11T04:25:10.959Z,23.43
2018-10-11T04:27:39.463Z,23.93
2018-10-11T04:30:08.033Z,21.97
2018-10-11T04:32:36.515Z,22.67
2018-10-11T04:35:05.084Z,21.27
2018-10-11T04:37:33.682Z,19.00
2018-10-11T04:40:02.214Z,19.03
2018-10-11T04:42:30.776Z,19.70
2018-10-11T04:44:59.266Z,20.40
2018-10-11T04:47:27.870Z,20.67
2018-10-11T04:49:56.427Z,21.10
2018-10-11T04:52:25.005Z,22.57
2018-10-11T04:54:53.500Z,23.00
2018-10-11T04:57:22.023Z,24.00
2018-10-11T04:59:50.552Z,24.07
2018-10-11T05:02:19.066Z,24.30
2018-10-11T05:04:47.606Z,25.70
2018-10-11T05:07:16.143Z,25.63
2018-10-11T05:09:44.718Z,26.13
2018-10-11T05:12:13.337Z,25.80
2018-10-11T05:14:41.947Z,24.97
2018-10-11T05:17:10.567Z,24.40
2018-10-11T05:19:40.090Z,23.77
2018-10-11T05:22:08.618Z,26.50
2018-10-11T05:24:37.155Z,27.97
2018-10-11T05:27:05.760Z,25.50
2018-10-11T05:29:34.262Z,31.03
2018-10-11T05:32:02.846Z,28.23
2018-10-11T05:34:31.381Z,28.97
2018-10-11T05:36:59.876Z,26.60
2018-10-11T05:39:28.495Z,26.00
2018-10-11T05:41:57.110Z,26.77
2018-10-11T05:44:25.818Z,26.90
2018-10-11T05:46:54.363Z,28.83
2018-10-11T05:49:22.993Z,26.33
2018-10-11T05:51:51.916Z,26.57
2018-10-11T05:54:20.549Z,26.00
2018-10-11T05:56:50.012Z,25.10
2018-10-11T05:59:18.508Z,22.53
2018-10-11T06:01:47.093Z,24.87
2018-10-11T06:04:15.842Z,22.67
2018-10-11T06:06:46.995Z,22.93
2018-10-11T06:09:15.619Z,22.27
2018-10-11T06:11:44.949Z,22.10
2018-10-11T06:14:14.056Z,23.77
2018-10-11T06:16:42.675Z,20.30
2018-10-11T06:19:13.324Z,23.47
2018-10-11T06:21:42.015Z,23.70
2018-10-11T06:24:10.701Z,25.73
2018-10-11T06:26:39.295Z,24.60
2018-10-11T06:29:07.886Z,23.47
2018-10-11T06:31:36.537Z,24.23
2018-10-11T06:34:05.197Z,24.17
2018-10-11T06:36:34.322Z,23.87
2018-10-11T06:39:03.426Z,25.50
2018-10-11T06:41:31.977Z,24.10
2018-10-11T06:44:00.897Z,23.77
2018-10-11T06:46:29.557Z,24.30
2018-10-11T06:48:58.255Z,22.00
2018-10-11T06:51:26.893Z,22.07
2018-10-11T06:53:55.449Z,21.40
2018-10-11T06:56:23.999Z,20.07
2018-10-11T06:58:52.539Z,20.00
2018-10-11T07:01:21.055Z,19.00
2018-10-11T07:03:49.573Z,17.80
2018-10-11T07:06:18.129Z,15.97
2018-10-11T07:08:46.637Z,17.50
2018-10-11T07:11:15.675Z,15.63
2018-10-11T07:13:44.377Z,15.80
2018-10-11T07:16:12.887Z,15.23
2018-10-11T07:18:41.472Z,15.90
2018-10-11T07:21:10.150Z,14.50
2018-10-11T07:23:38.652Z,15.60
2018-10-11T07:26:07.248Z,16.57
2018-10-11T07:28:35.773Z,14.57
2018-10-11T07:31:04.304Z,14.80
2018-10-11T07:33:32.838Z,14.43
2018-10-11T07:36:01.417Z,15.97
2018-10-11T07:38:29.910Z,14.53
2018-10-11T07:40:58.511Z,14.37
2018-10-11T07:43:26.989Z,13.97
2018-10-11T07:45:55.558Z,13.53
2018-10-11T07:48:24.071Z,14.30
2018-10-11T07:50:52.627Z,14.40
2018-10-11T07:53:21.144Z,13.80
2018-10-11T07:55:49.702Z,14.40
2018-10-11T07:58:18.202Z,14.47
2018-10-11T08:00:46.741Z,14.37
2018-10-11T08:03:15.228Z,13.57
2018-10-11T08:05:43.795Z,14.30
2018-10-11T08:08:12.380Z,14.10
2018-10-11T08:10:41.131Z,13.07
2018-10-11T08:13:09.671Z,14.20
2018-10-11T08:15:38.279Z,13.60
2018-10-11T08:18:07.309Z,14.07
2018-10-11T08:20:36.012Z,13.80
2018-10-11T08:23:04.618Z,14.87
2018-10-11T08:25:33.530Z,13.20
2018-10-11T08:28:01.753Z,16.00
2018-10-11T08:30:30.835Z,13.60
2018-10-11T08:33:01.224Z,12.90
2018-10-11T08:35:29.768Z,14.23
2018-10-11T08:37:58.473Z,13.47
2018-10-11T08:40:26.878Z,12.67
2018-10-11T08:42:55.423Z,13.77
2018-10-11T08:45:23.942Z,12.93
2018-10-11T08:47:52.432Z,13.60
2018-10-11T08:50:21.148Z,13.33
2018-10-11T08:52:49.559Z,13.00
2018-10-11T08:55:18.132Z,12.53
2018-10-11T08:57:46.663Z,12.73
2018-10-11T09:00:15.163Z,13.50
2018-10-11T09:02:43.695Z,12.50
2018-10-11T09:05:12.299Z,13.00
2018-10-11T09:07:40.738Z,12.27
2018-10-11T09:10:09.287Z,12.50
2018-10-11T09:12:37.818Z,12.70
2018-10-11T09:15:07.102Z,12.80
2018-10-11T09:17:35.621Z,11.60
2018-10-11T09:20:04.246Z,12.43
2018-10-11T09:22:32.803Z,11.50
2018-10-11T09:25:01.403Z,12.10
2018-10-11T09:27:29.976Z,11.47
2018-10-11T09:29:58.592Z,12.20
2018-10-11T09:32:27.144Z,11.73
2018-10-11T09:34:55.800Z,11.77
2018-10-11T09:37:24.349Z,11.63
2018-10-11T09:39:52.916Z,10.83
2018-10-11T09:42:21.459Z,12.40
2018-10-11T09:44:49.973Z,11.70
2018-10-11T09:47:18.482Z,11.40
2018-10-11T09:49:47.050Z,11.27
2018-10-11T09:52:15.603Z,10.97
2018-10-11T09:54:44.157Z,11.00
2018-10-11T09:57:17.188Z,11.03
2018-10-11T09:59:45.719Z,11.33
2018-10-11T10:02:14.772Z,10.97
2018-10-11T10:04:45.623Z,11.53
2018-10-11T10:07:14.209Z,10.53
2018-10-11T10:09:43.665Z,10.80
2018-10-11T10:12:12.799Z,11.63
2018-10-11T10:14:42.316Z,10.47
2018-10-11T10:17:10.888Z,11.57
2018-10-11T10:19:39.574Z,9.67
2018-10-11T10:22:08.205Z,10.43
2018-10-11T10:24:36.795Z,11.47
2018-10-11T10:27:05.430Z,13.17
2018-10-11T10:29:34.224Z,10.53
2018-10-11T10:32:03.202Z,10.20
2018-10-11T10:34:31.761Z,10.50
2018-10-11T10:37:00.320Z,11.23
2018-10-11T10:39:28.881Z,9.63
2018-10-11T10:41:57.443Z,9.60
2018-10-11T10:44:26.045Z,9.80
2018-10-11T10:46:54.595Z,10.03
2018-10-11T10:49:23.154Z,9.57
2018-10-11T10:51:51.675Z,10.07
2018-10-11T10:54:23.167Z,9.80
2018-10-11T10:56:52.243Z,10.03
2018-10-11T10:59:20.821Z,10.30
2018-10-11T11:01:49.396Z,9.20
2018-10-11T11:04:18.032Z,10.20
2018-10-11T11:06:47.515Z,9.13
2018-10-11T11:09:17.027Z,8.77
2018-10-11T11:11:45.514Z,9.63
2018-10-11T11:14:15.410Z,9.43
2018-10-11T11:16:44.362Z,9.03
2018-10-11T11:19:13.280Z,8.00
2018-10-11T11:21:41.884Z,8.10
2018-10-11T11:24:10.478Z,9.40
2018-10-11T11:26:39.035Z,6.80
2018-10-11T11:29:07.689Z,7.30
2018-10-11T11:31:36.195Z,8.47
2018-10-11T11:34:04.816Z,8.10
2018-10-11T11:36:33.318Z,6.97
2018-10-11T11:39:01.847Z,6.60
2018-10-11T11:41:30.375Z,6.70
2018-10-11T11:43:58.891Z,6.90
2018-10-11T11:46:27.410Z,7.60
2018-10-11T11:48:55.906Z,8.30
2018-10-11T11:51:24.471Z,8.53
2018-10-11T11:53:53.023Z,7.80
2018-10-11T11:56:21.611Z,8.13
2018-10-11T11:58:50.148Z,8.93
2018-10-11T12:01:18.884Z,8.10
2018-10-11T12:03:47.827Z,7.53
2018-10-11T12:06:16.437Z,9.50
2018-10-11T12:08:44.982Z,9.73
2018-10-11T12:11:13.517Z,11.00
2018-10-11T12:13:42.107Z,11.40
2018-10-11T12:16:10.630Z,9.97
2018-10-11T12:18:39.191Z,10.50
2018-10-11T12:21:07.857Z,11.50
2018-10-11T12:23:36.513Z,11.17
2018-10-11T12:26:05.083Z,26.50
2018-10-11T12:28:33.801Z,10.60
2018-10-11T12:31:02.271Z,10.87
2018-10-11T12:33:30.811Z,10.17
2018-10-11T12:35:59.374Z,10.10
2018-10-11T12:38:27.976Z,10.37
2018-10-11T12:40:56.500Z,11.63
2018-10-11T12:43:25.027Z,11.17
2018-10-11T12:45:53.617Z,10.67
2018-10-11T12:48:22.127Z,10.17
2018-10-11T12:50:50.686Z,9.50
2018-10-11T12:53:19.276Z,11.00
2018-10-11T12:55:47.803Z,9.80
2018-10-11T12:58:16.345Z,10.73
2018-10-11T13:00:44.918Z,10.20
2018-10-11T13:03:13.624Z,10.50
2018-10-11T13:05:42.173Z,10.00
2018-10-11T13:08:10.734Z,10.70
2018-10-11T13:10:39.349Z,10.63
2018-10-11T13:13:08.458Z,11.27
2018-10-11T13:15:37.111Z,10.20
2018-10-11T13:18:05.579Z,10.83
2018-10-11T13:20:34.132Z,11.57
2018-10-11T13:23:02.922Z,9.73
2018-10-11T13:25:31.449Z,11.53
2018-10-11T13:27:59.968Z,10.00
2018-10-11T13:30:28.606Z,10.73
2018-10-11T13:32:57.169Z,10.10
2018-10-11T13:35:25.792Z,10.27
2018-10-11T13:37:54.341Z,11.27
2018-10-11T13:40:22.902Z,10.70
2018-10-11T13:42:51.426Z,10.20
2018-10-11T13:45:19.996Z,10.50
2018-10-11T13:47:48.572Z,11.50
2018-10-11T13:50:17.131Z,10.33
2018-10-11T13:52:49.217Z,9.27
2018-10-11T13:55:17.797Z,10.90
2018-10-11T13:57:46.557Z,9.63
2018-10-11T14:00:15.165Z,10.73
2018-10-11T14:02:43.697Z,10.23
2018-10-11T14:05:12.271Z,9.60
2018-10-11T14:07:40.787Z,8.63
2018-10-11T14:10:09.313Z,8.43
2018-10-11T14:12:37.818Z,8.27
2018-10-11T14:15:07.591Z,9.03
2018-10-11T14:17:36.175Z,8.70
2018-10-11T14:20:04.882Z,8.30
2018-10-11T14:22:33.408Z,8.23
2018-10-11T14:25:02.010Z,8.47
2018-10-11T14:27:30.582Z,8.37
2018-10-11T14:29:59.107Z,8.20
2018-10-11T14:32:27.635Z,7.83
2018-10-11T14:34:56.215Z,8.80
2018-10-11T14:37:24.795Z,8.07
2018-10-11T14:39:53.445Z,9.20
2018-10-11T14:42:22.011Z,8.10
2018-10-11T14:44:50.546Z,8.77
2018-10-11T14:47:19.092Z,8.17
2018-10-11T14:49:47.646Z,7.80
2018-10-11T14:52:16.248Z,7.90
2018-10-11T14:54:44.802Z,7.27
2018-10-11T14:57:13.530Z,8.30
2018-10-11T14:59:42.182Z,7.07
2018-10-11T15:02:10.742Z,6.87
2018-10-11T15:04:39.310Z,6.70
2018-10-11T15:07:08.173Z,7.63
2018-10-11T15:09:36.736Z,6.60
2018-10-11T15:12:05.273Z,6.03
2018-10-11T15:14:33.813Z,6.90
2018-10-11T15:17:02.355Z,7.17
2018-10-11T15:19:30.894Z,6.80
2018-10-11T15:21:59.556Z,7.03
2018-10-11T15:24:28.130Z,6.10
2018-10-11T15:26:56.658Z,6.60
2018-10-11T15:29:25.267Z,6.80
2018-10-11T15:31:53.723Z,6.70
2018-10-11T15:34:22.387Z,5.93
2018-10-11T15:36:50.954Z,6.07
2018-10-11T15:39:19.447Z,6.40
2018-10-11T15:41:48.049Z,6.70
2018-10-11T15:44:16.504Z,5.83
2018-10-11T15:46:45.053Z,6.10
2018-10-11T15:49:13.609Z,5.70
2018-10-11T15:51:42.154Z,6.67
2018-10-11T15:54:10.647Z,6.63
2018-10-11T15:56:39.159Z,6.47
2018-10-11T15:59:07.698Z,6.83
2018-10-11T16:01:36.199Z,6.00
2018-10-11T16:04:04.730Z,5.63
2018-10-11T16:06:33.286Z,6.13
2018-10-11T16:09:01.866Z,5.60
2018-10-11T16:11:30.403Z,5.70
2018-10-11T16:13:58.935Z,5.50
2018-10-11T16:16:27.459Z,5.00
2018-10-11T16:18:56.044Z,5.80
2018-10-11T16:21:24.711Z,5.47
2018-10-11T16:23:53.270Z,4.93
2018-10-11T16:26:21.796Z,5.83
2018-10-11T16:28:50.306Z,6.20
2018-10-11T16:31:18.818Z,5.63
2018-10-11T16:33:47.630Z,7.17
2018-10-11T16:36:16.198Z,7.40
2018-10-11T16:38:44.719Z,6.97
2018-10-11T16:41:13.267Z,7.33
2018-10-11T16:43:41.798Z,7.40
2018-10-11T16:46:10.318Z,6.60
2018-10-11T16:48:38.871Z,9.13
2018-10-11T16:51:07.596Z,8.60
2018-10-11T16:53:36.283Z,9.10
2018-10-11T16:56:04.843Z,9.80
2018-10-11T16:58:33.482Z,10.10
2018-10-11T17:01:02.068Z,9.97
2018-10-11T17:03:30.597Z,9.23
2018-10-11T17:05:59.170Z,9.77
2018-10-11T17:08:27.792Z,9.00
2018-10-11T17:10:56.572Z,8.97
2018-10-11T17:13:25.129Z,8.83
2018-10-11T17:15:53.662Z,9.13
2018-10-11T17:18:22.221Z,9.90
2018-10-11T17:20:50.831Z,9.60
2018-10-11T17:23:19.416Z,9.60
2018-10-11T17:25:47.924Z,8.70
2018-10-11T17:28:16.456Z,9.90
2018-10-11T17:30:44.971Z,10.03
2018-10-11T17:33:13.551Z,10.33
2018-10-11T17:35:42.100Z,9.57
2018-10-11T17:38:10.640Z,10.10
2018-10-11T17:40:39.260Z,10.10
2018-10-11T17:43:07.860Z,9.30
2018-10-11T17:45:36.446Z,9.40
2018-10-11T17:48:05.011Z,9.50
2018-10-11T17:50:33.535Z,9.47
2018-10-11T17:53:02.079Z,8.73
2018-10-11T17:55:30.648Z,9.93
2018-10-11T17:57:59.176Z,8.60
2018-10-11T18:00:27.786Z,10.10
2018-10-11T18:02:56.360Z,9.90
2018-10-11T18:05:25.817Z,9.97
2018-10-11T18:07:54.397Z,9.53
2018-10-11T18:10:22.947Z,9.80
2018-10-11T18:12:51.487Z,9.40
2018-10-11T18:15:20.024Z,9.33
2018-10-11T18:17:48.594Z,9.57
2018-10-11T18:20:17.151Z,10.03
2018-10-11T18:22:45.691Z,10.63
2018-10-11T18:25:14.199Z,10.70
2018-10-11T18:27:42.784Z,9.70
2018-10-11T18:30:12.580Z,10.60
2018-10-11T18:32:41.760Z,9.83
2018-10-11T18:35:10.970Z,9.90
2018-10-11T18:37:39.758Z,11.23
2018-10-11T18:40:08.326Z,11.00
2018-10-11T18:42:36.874Z,11.80
2018-10-11T18:45:05.789Z,11.77
2018-10-11T18:47:36.433Z,12.20
2018-10-11T18:50:05.128Z,12.30
2018-10-11T18:52:33.679Z,11.40
2018-10-11T18:55:02.290Z,12.10
2018-10-11T18:57:31.391Z,12.00
2018-10-11T18:59:59.923Z,11.63
2018-10-11T19:02:28.438Z,12.93
2018-10-11T19:04:56.969Z,12.17
2018-10-11T19:07:32.502Z,12.43
2018-10-11T19:10:01.129Z,13.57
2018-10-11T19:12:29.723Z,13.30
2018-10-11T19:14:58.258Z,14.23
2018-10-11T19:17:26.810Z,13.63
2018-10-11T19:19:55.327Z,14.00
2018-10-11T19:22:23.838Z,13.23
2018-10-11T19:24:52.392Z,13.20
2018-10-11T19:27:21.007Z,14.57
2018-10-11T19:29:49.536Z,14.23
2018-10-11T19:32:18.168Z,13.70
2018-10-11T19:34:46.819Z,13.00
2018-10-11T19:37:15.490Z,14.80
2018-10-11T19:39:44.057Z,14.33
2018-10-11T19:42:12.743Z,13.13
2018-10-11T19:44:41.321Z,13.20
2018-10-11T19:47:09.926Z,14.47
2018-10-11T19:49:38.449Z,13.33
2018-10-11T19:52:07.337Z,12.23
2018-10-11T19:54:35.842Z,13.90
2018-10-11T19:57:04.490Z,14.30
2018-10-11T19:59:33.104Z,15.10
2018-10-11T20:02:01.720Z,15.23
2018-10-11T20:04:32.268Z,14.20
2018-10-11T20:07:01.004Z,15.97
2018-10-11T20:09:29.742Z,14.23
2018-10-11T20:11:58.321Z,14.60
2018-10-11T20:14:26.971Z,14.27
2018-10-11T20:16:55.544Z,15.00
2018-10-11T20:19:24.088Z,14.50
2018-10-11T20:21:52.683Z,15.00
2018-10-11T20:24:21.287Z,15.00
2018-10-11T20:26:49.968Z,14.60
2018-10-11T20:29:18.597Z,15.23
2018-10-11T20:31:48.179Z,13.93
2018-10-11T20:34:16.834Z,14.80
2018-10-11T20:36:45.470Z,14.00
2018-10-11T20:39:14.080Z,15.33
2018-10-11T20:41:42.636Z,14.90
2018-10-11T20:44:11.397Z,14.43
2018-10-11T20:46:39.998Z,15.17
2018-10-11T20:49:10.052Z,14.43
2018-10-11T20:51:38.706Z,14.20
2018-10-11T20:54:07.299Z,15.80
2018-10-11T20:56:35.903Z,14.50
2018-10-11T20:59:04.592Z,16.23
2018-10-11T21:01:33.183Z,16.23
2018-10-11T21:04:01.720Z,16.17
2018-10-11T21:06:31.168Z,16.33
2018-10-11T21:09:05.042Z,16.87
2018-10-11T21:11:39.227Z,15.70
2018-10-11T21:14:08.015Z,15.10
2018-10-11T21:16:36.726Z,15.40
2018-10-11T21:19:05.406Z,17.20
2018-10-11T21:21:33.891Z,16.60
2018-10-11T21:24:02.461Z,16.00
2018-10-11T21:26:31.033Z,14.80
2018-10-11T21:28:59.642Z,15.90
2018-10-11T21:31:28.193Z,16.23
2018-10-11T21:33:56.747Z,16.70
2018-10-11T21:36:25.310Z,16.37
2018-10-11T21:38:53.823Z,14.83
2018-10-11T21:41:22.385Z,15.13
2018-10-11T21:43:51.607Z,15.63
2018-10-11T21:46:20.153Z,14.43
2018-10-11T21:48:48.680Z,16.30
2018-10-11T21:51:17.175Z,13.73
2018-10-11T21:53:45.724Z,13.87
2018-10-11T21:56:14.347Z,13.77
2018-10-11T21:58:42.867Z,14.70
2018-10-11T22:01:16.725Z,16.07
2018-10-11T22:03:45.239Z,13.83
2018-10-11T22:06:13.765Z,13.87
2018-10-11T22:08:42.372Z,14.77
2018-10-11T22:11:11.452Z,14.73
2018-10-11T22:13:40.248Z,13.93
2018-10-11T22:16:09.250Z,12.77
2018-10-11T22:18:38.295Z,13.73
2018-10-11T22:21:07.242Z,13.47
2018-10-11T22:23:35.855Z,13.90
2018-10-11T22:26:04.450Z,14.20
2018-10-11T22:28:33.086Z,15.50
2018-10-11T22:31:01.603Z,15.87
2018-10-11T22:33:30.158Z,15.50
2018-10-11T22:35:58.749Z,15.70
2018-10-11T22:38:27.371Z,16.13
2018-10-11T22:40:55.926Z,17.27
2018-10-11T22:43:24.500Z,16.03
2018-10-11T22:45:53.095Z,16.90
2018-10-11T22:48:21.640Z,14.97
2018-10-11T22:50:50.199Z,17.07
2018-10-11T22:53:18.734Z,15.47
2018-10-11T22:55:47.340Z,16.03
2018-10-11T22:58:15.850Z,15.30
2018-10-11T23:00:44.423Z,15.73
2018-10-11T23:03:12.930Z,15.13
2018-10-11T23:05:41.436Z,15.10
2018-10-11T23:08:09.947Z,14.93
2018-10-11T23:10:38.523Z,14.13
2018-10-11T23:13:07.124Z,13.27
2018-10-11T23:15:35.682Z,13.10
2018-10-11T23:18:04.226Z,13.33
2018-10-11T23:20:32.784Z,12.97
2018-10-11T23:23:01.317Z,14.27
2018-10-11T23:25:29.876Z,13.30
2018-10-11T23:27:58.419Z,13.37
2018-10-11T23:30:26.988Z,10.90
2018-10-11T23:32:55.537Z,13.30
2018-10-11T23:35:24.081Z,12.30
2018-10-11T23:37:52.662Z,12.43
2018-10-11T23:40:21.203Z,11.90
2018-10-11T23:42:49.721Z,12.40
2018-10-11T23:45:18.287Z,11.77
2018-10-11T23:47:46.845Z,12.20
2018-10-11T23:50:15.341Z,12.10
2018-10-11T23:52:43.863Z,12.27
2018-10-11T23:55:12.401Z,11.70
2018-10-11T23:57:40.947Z,11.87
